createdAt,value
2023-01-09T00:00:26.252Z,989.1
2023-01-09T00:01:26.203Z,989.1
2023-01-09T00:02:26.240Z,989.1
2023-01-09T00:03:26.223Z,989.1
2023-01-09T00:04:26.201Z,989.1
2023-01-09T00:05:26.193Z,989.1
2023-01-09T00:06:26.199Z,989.1
2023-01-09T00:07:26.199Z,989
2023-01-09T00:08:26.196Z,989.1
2023-01-09T00:09:26.204Z,989.1
2023-01-09T00:10:26.202Z,989.1
2023-01-09T00:11:26.218Z,989.1
2023-01-09T00:12:26.205Z,989.2
2023-01-09T00:13:26.283Z,989.2
2023-01-09T00:14:26.195Z,989.1
2023-01-09T00:15:26.200Z,989.1
2023-01-09T00:16:26.310Z,989.2
2023-01-09T00:17:26.196Z,989.3
2023-01-09T00:18:26.198Z,989.3
2023-01-09T00:19:26.200Z,989.2
2023-01-09T00:20:26.195Z,989.2
2023-01-09T00:21:26.194Z,989.2
2023-01-09T00:22:26.212Z,989.2
2023-01-09T00:23:26.193Z,989.2
2023-01-09T00:24:26.199Z,989.2
2023-01-09T00:25:26.209Z,989.2
2023-01-09T00:26:26.205Z,989.2
2023-01-09T00:27:26.189Z,989.2
2023-01-09T00:28:26.193Z,989.2
2023-01-09T00:29:26.197Z,989.2
2023-01-09T00:30:26.305Z,989.1
2023-01-09T00:31:26.196Z,989.1
2023-01-09T00:32:26.221Z,989.1
2023-01-09T00:33:26.195Z,989.1
2023-01-09T00:34:26.200Z,989.1
2023-01-09T00:35:26.201Z,989.1
2023-01-09T00:36:26.212Z,989.2
2023-01-09T00:37:26.191Z,989.1
2023-01-09T00:38:26.217Z,989.2
2023-01-09T00:39:26.188Z,989.1
2023-01-09T00:40:26.196Z,989.1
2023-01-09T00:41:26.188Z,989.2
2023-01-09T00:42:26.191Z,989.1
2023-01-09T00:43:26.198Z,989.2
2023-01-09T00:44:26.233Z,989.1
2023-01-09T00:45:26.196Z,989.1
2023-01-09T00:46:26.264Z,989.2
2023-01-09T00:47:26.196Z,989.2
2023-01-09T00:48:26.208Z,989.2
2023-01-09T00:49:26.206Z,989.2
2023-01-09T00:50:26.187Z,989.2
2023-01-09T00:51:26.199Z,989.2
2023-01-09T00:52:26.192Z,989.1
2023-01-09T00:53:26.206Z,989.1
2023-01-09T00:54:26.193Z,989.1
2023-01-09T00:55:26.201Z,989
2023-01-09T00:56:26.193Z,989.1
2023-01-09T00:57:26.190Z,989.1
2023-01-09T00:58:26.202Z,989.1
2023-01-09T00:59:26.193Z,989.1
2023-01-09T01:00:26.197Z,989.1
2023-01-09T01:01:26.345Z,989.1
2023-01-09T01:02:26.380Z,989.2
2023-01-09T01:03:26.210Z,989.2
2023-01-09T01:04:26.191Z,989.2
2023-01-09T01:05:26.189Z,989.3
2023-01-09T01:06:26.187Z,989.2
2023-01-09T01:07:26.203Z,989.2
2023-01-09T01:08:26.193Z,989.2
2023-01-09T01:09:26.190Z,989.2
2023-01-09T01:11:26.205Z,989.3
2023-01-09T01:12:26.193Z,989.3
2023-01-09T01:13:26.186Z,989.4
2023-01-09T01:14:26.185Z,989.3
2023-01-09T01:15:26.233Z,989.3
2023-01-09T01:16:26.265Z,989.3
2023-01-09T01:17:26.214Z,989.3
2023-01-09T01:18:26.195Z,989.3
2023-01-09T01:19:26.210Z,989.4
2023-01-09T01:20:26.195Z,989.4
2023-01-09T01:22:26.194Z,989.4
2023-01-09T01:23:26.191Z,989.4
2023-01-09T01:24:26.191Z,989.5
2023-01-09T01:25:26.193Z,989.4
2023-01-09T01:26:26.192Z,989.3
2023-01-09T01:27:26.192Z,989.4
2023-01-09T01:28:26.194Z,989.5
2023-01-09T01:29:26.197Z,989.4
2023-01-09T01:30:26.230Z,989.5
2023-01-09T01:31:26.206Z,989.5
2023-01-09T01:32:26.192Z,989.5
2023-01-09T01:33:26.192Z,989.5
2023-01-09T01:34:26.219Z,989.5
2023-01-09T01:35:26.191Z,989.5
2023-01-09T01:36:26.189Z,989.5
2023-01-09T01:37:26.189Z,989.5
2023-01-09T01:38:26.213Z,989.5
2023-01-09T01:39:26.195Z,989.6
2023-01-09T01:40:26.193Z,989.6
2023-01-09T01:41:26.191Z,989.6
2023-01-09T01:42:26.187Z,989.7
2023-01-09T01:43:26.204Z,989.7
2023-01-09T01:44:26.201Z,989.7
2023-01-09T01:45:26.193Z,989.7
2023-01-09T01:46:26.220Z,989.7
2023-01-09T01:47:26.190Z,989.8
2023-01-09T01:48:26.188Z,989.8
2023-01-09T01:49:26.187Z,989.8
2023-01-09T01:50:26.201Z,989.8
2023-01-09T01:51:26.188Z,989.8
2023-01-09T01:52:26.196Z,989.8
2023-01-09T01:53:26.197Z,989.8
2023-01-09T01:54:26.194Z,989.8
2023-01-09T01:55:26.193Z,989.8
2023-01-09T01:56:26.188Z,989.8
2023-01-09T01:57:26.190Z,989.8
2023-01-09T01:58:26.190Z,989.8
2023-01-09T01:59:26.186Z,989.8
2023-01-09T02:00:26.187Z,989.8
2023-01-09T02:01:26.341Z,989.7
2023-01-09T02:02:26.342Z,989.8
2023-01-09T02:03:26.214Z,989.8
2023-01-09T02:05:26.287Z,989.9
2023-01-09T02:06:26.199Z,989.9
2023-01-09T02:07:26.195Z,989.9
2023-01-09T02:08:26.203Z,989.9
2023-01-09T02:09:26.186Z,989.9
2023-01-09T02:11:26.186Z,990
2023-01-09T02:12:26.260Z,990
2023-01-09T02:13:26.192Z,990
2023-01-09T02:14:26.195Z,990
2023-01-09T02:15:26.203Z,990
2023-01-09T02:16:26.189Z,990
2023-01-09T02:17:26.214Z,990
2023-01-09T02:18:26.206Z,990
2023-01-09T02:19:26.204Z,990
2023-01-09T02:20:26.186Z,989.9
2023-01-09T02:21:26.211Z,990
2023-01-09T02:22:26.201Z,989.9
2023-01-09T02:23:26.199Z,989.9
2023-01-09T02:24:26.193Z,989.9
2023-01-09T02:25:26.183Z,989.9
2023-01-09T02:26:26.201Z,989.9
2023-01-09T02:27:26.205Z,989.9
2023-01-09T02:28:26.188Z,989.9
2023-01-09T02:29:26.184Z,990
2023-01-09T02:30:26.192Z,990
2023-01-09T02:31:26.308Z,990
2023-01-09T02:32:26.188Z,989.9
2023-01-09T02:33:26.192Z,990
2023-01-09T02:34:26.245Z,990
2023-01-09T02:35:26.190Z,990
2023-01-09T02:36:26.192Z,989.9
2023-01-09T02:37:26.201Z,989.9
2023-01-09T02:39:26.189Z,989.9
2023-01-09T02:40:26.198Z,989.8
2023-01-09T02:41:26.192Z,989.8
2023-01-09T02:42:26.199Z,989.9
2023-01-09T02:43:26.195Z,989.9
2023-01-09T02:44:26.259Z,989.9
2023-01-09T02:45:26.244Z,989.9
2023-01-09T02:46:26.199Z,989.9
2023-01-09T02:47:26.259Z,989.9
2023-01-09T02:48:26.220Z,989.9
2023-01-09T02:49:26.191Z,990
2023-01-09T02:50:26.192Z,990
2023-01-09T02:51:26.199Z,990
2023-01-09T02:52:26.191Z,990
2023-01-09T02:53:26.195Z,990
2023-01-09T02:54:26.200Z,990
2023-01-09T02:55:26.194Z,990
2023-01-09T02:56:26.192Z,990
2023-01-09T02:57:26.208Z,990
2023-01-09T02:58:26.184Z,990
2023-01-09T02:59:26.193Z,990
2023-01-09T03:00:26.196Z,990.1
2023-01-09T03:01:26.313Z,990
2023-01-09T03:02:26.191Z,990
2023-01-09T03:03:26.193Z,990
2023-01-09T03:05:26.189Z,990
2023-01-09T03:06:27.624Z,990.1
2023-01-09T03:07:26.194Z,990.1
2023-01-09T03:08:26.191Z,990.1
2023-01-09T03:09:26.199Z,990
2023-01-09T03:11:26.188Z,990
2023-01-09T03:12:26.194Z,990
2023-01-09T03:13:26.199Z,990.1
2023-01-09T03:14:26.208Z,990.1
2023-01-09T03:15:26.204Z,990
2023-01-09T03:16:26.209Z,990.1
2023-01-09T03:17:26.208Z,990
2023-01-09T03:18:26.201Z,990
2023-01-09T03:19:26.237Z,990.1
2023-01-09T03:20:26.262Z,990.1
2023-01-09T03:21:26.197Z,990.2
2023-01-09T03:22:26.201Z,990.1
2023-01-09T03:23:26.195Z,990.2
2023-01-09T03:24:26.189Z,990.1
2023-01-09T03:25:26.203Z,990.1
2023-01-09T03:26:26.193Z,990.2
2023-01-09T03:27:26.198Z,990.2
2023-01-09T03:28:26.206Z,990.2
2023-01-09T03:29:27.051Z,990.2
2023-01-09T03:30:26.193Z,990.2
2023-01-09T03:31:26.245Z,990.2
2023-01-09T03:32:26.190Z,990.2
2023-01-09T03:33:26.195Z,990.2
2023-01-09T03:35:26.209Z,990.3
2023-01-09T03:36:26.211Z,990.3
2023-01-09T03:37:26.195Z,990.3
2023-01-09T03:38:26.265Z,990.4
2023-01-09T03:39:26.190Z,990.4
2023-01-09T03:40:26.194Z,990.4
2023-01-09T03:41:26.199Z,990.4
2023-01-09T03:42:26.223Z,990.4
2023-01-09T03:43:26.196Z,990.4
2023-01-09T03:44:26.197Z,990.4
2023-01-09T03:45:26.252Z,990.4
2023-01-09T03:46:26.217Z,990.4
2023-01-09T03:47:26.199Z,990.5
2023-01-09T03:48:26.197Z,990.4
2023-01-09T03:49:26.199Z,990.5
2023-01-09T03:50:26.217Z,990.4
2023-01-09T03:51:26.192Z,990.5
2023-01-09T03:52:26.195Z,990.5
2023-01-09T03:53:26.202Z,990.5
2023-01-09T03:54:26.215Z,990.5
2023-01-09T03:55:26.200Z,990.5
2023-01-09T03:56:26.192Z,990.5
2023-01-09T03:57:26.192Z,990.5
2023-01-09T03:58:26.203Z,990.5
2023-01-09T03:59:26.192Z,990.5
2023-01-09T04:00:26.195Z,990.6
2023-01-09T04:01:26.347Z,990.6
2023-01-09T04:02:26.194Z,990.6
2023-01-09T04:03:26.190Z,990.6
2023-01-09T04:04:26.193Z,990.6
2023-01-09T04:06:26.193Z,990.5
2023-01-09T04:07:26.192Z,990.5
2023-01-09T04:08:26.188Z,990.5
2023-01-09T04:09:26.202Z,990.6
2023-01-09T04:10:26.191Z,990.6
2023-01-09T04:11:26.189Z,990.6
2023-01-09T04:12:26.198Z,990.5
2023-01-09T04:13:26.193Z,990.5
2023-01-09T04:14:26.192Z,990.5
2023-01-09T04:15:26.195Z,990.5
2023-01-09T04:16:26.268Z,990.5
2023-01-09T04:17:26.202Z,990.5
2023-01-09T04:19:26.195Z,990.5
2023-01-09T04:20:26.201Z,990.5
2023-01-09T04:21:26.211Z,990.6
2023-01-09T04:22:26.197Z,990.5
2023-01-09T04:23:26.187Z,990.5
2023-01-09T04:24:26.217Z,990.5
2023-01-09T04:25:26.192Z,990.5
2023-01-09T04:26:26.220Z,990.5
2023-01-09T04:28:26.193Z,990.6
2023-01-09T04:29:26.193Z,990.6
2023-01-09T04:30:26.197Z,990.6
2023-01-09T04:32:26.199Z,990.6
2023-01-09T04:33:36.478Z,990.6
2023-01-09T04:34:36.507Z,990.6
2023-01-09T04:35:36.495Z,990.6
2023-01-09T04:36:26.201Z,990.6
2023-01-09T04:37:26.193Z,990.7
2023-01-09T04:38:26.189Z,990.6
2023-01-09T04:39:26.191Z,990.7
2023-01-09T04:40:26.191Z,990.7
2023-01-09T04:41:26.199Z,990.7
2023-01-09T04:42:26.190Z,990.8
2023-01-09T04:43:26.201Z,990.8
2023-01-09T04:44:26.226Z,990.9
2023-01-09T04:45:26.219Z,990.9
2023-01-09T04:46:26.185Z,990.9
2023-01-09T04:47:26.188Z,990.8
2023-01-09T04:48:26.199Z,990.9
2023-01-09T04:49:26.199Z,990.9
2023-01-09T04:50:26.203Z,990.9
2023-01-09T04:51:26.192Z,990.9
2023-01-09T04:52:26.223Z,990.9
2023-01-09T04:53:26.191Z,991
2023-01-09T04:54:26.189Z,990.9
2023-01-09T04:55:26.212Z,990.9
2023-01-09T04:56:26.195Z,990.9
2023-01-09T04:57:26.200Z,990.9
2023-01-09T04:58:26.199Z,991
2023-01-09T04:59:26.194Z,990.9
2023-01-09T05:00:26.188Z,990.9
2023-01-09T05:01:26.448Z,990.9
2023-01-09T05:02:26.193Z,990.9
2023-01-09T05:03:26.190Z,990.9
2023-01-09T05:04:26.282Z,991
2023-01-09T05:05:26.197Z,991
2023-01-09T05:06:26.193Z,991
2023-01-09T05:07:26.195Z,991
2023-01-09T05:08:26.201Z,991
2023-01-09T05:09:26.193Z,991
2023-01-09T05:10:26.189Z,991
2023-01-09T05:11:26.192Z,991
2023-01-09T05:13:26.231Z,991.1
2023-01-09T05:14:26.189Z,991.1
2023-01-09T05:15:26.201Z,991.1
2023-01-09T05:16:26.270Z,991.1
2023-01-09T05:17:26.211Z,991.1
2023-01-09T05:18:26.187Z,991.1
2023-01-09T05:19:26.198Z,991.1
2023-01-09T05:20:26.193Z,991.2
2023-01-09T05:21:26.192Z,991.1
2023-01-09T05:22:26.188Z,991.1
2023-01-09T05:23:26.229Z,991.1
2023-01-09T05:25:26.184Z,991.1
2023-01-09T05:26:26.216Z,991.1
2023-01-09T05:27:26.186Z,991.1
2023-01-09T05:28:26.190Z,991.1
2023-01-09T05:29:26.182Z,991.1
2023-01-09T05:30:26.184Z,991.1
2023-01-09T05:31:26.329Z,991.2
2023-01-09T05:32:26.193Z,991.2
2023-01-09T05:33:26.190Z,991.1
2023-01-09T05:34:26.184Z,991.2
2023-01-09T05:35:26.198Z,991.2
2023-01-09T05:36:26.193Z,991.2
2023-01-09T05:37:26.197Z,991.2
2023-01-09T05:38:26.196Z,991.2
2023-01-09T05:41:26.239Z,991.2
2023-01-09T05:42:26.194Z,991.2
2023-01-09T05:43:26.195Z,991.2
2023-01-09T05:44:26.185Z,991.2
2023-01-09T05:45:26.211Z,991.3
2023-01-09T05:46:26.193Z,991.2
2023-01-09T05:47:26.192Z,991.3
2023-01-09T05:48:26.199Z,991.2
2023-01-09T05:49:26.189Z,991.2
2023-01-09T05:50:26.190Z,991.2
2023-01-09T05:51:26.189Z,991.2
2023-01-09T05:52:26.210Z,991.2
2023-01-09T05:53:26.189Z,991.2
2023-01-09T05:54:26.219Z,991.2
2023-01-09T05:55:26.214Z,991.1
2023-01-09T05:56:26.188Z,991.2
2023-01-09T05:57:26.186Z,991.1
2023-01-09T05:58:26.187Z,991.1
2023-01-09T05:59:26.184Z,991.1
2023-01-09T06:00:26.181Z,991.1
2023-01-09T06:01:26.282Z,991.1
2023-01-09T06:02:26.334Z,991.2
2023-01-09T06:03:26.183Z,991.2
2023-01-09T06:04:26.186Z,991.1
2023-01-09T06:05:26.191Z,991.2
2023-01-09T06:06:26.184Z,991.1
2023-01-09T06:07:26.184Z,991.1
2023-01-09T06:08:26.201Z,991.1
2023-01-09T06:09:26.195Z,991.1
2023-01-09T06:10:26.190Z,991.1
2023-01-09T06:11:26.197Z,991.2
2023-01-09T06:12:26.188Z,991.2
2023-01-09T06:13:26.195Z,991.1
2023-01-09T06:14:26.218Z,991.2
2023-01-09T06:15:26.181Z,991.2
2023-01-09T06:16:26.197Z,991.2
2023-01-09T06:17:26.187Z,991.2
2023-01-09T06:18:26.187Z,991.2
2023-01-09T06:19:26.183Z,991.1
2023-01-09T06:20:26.192Z,991.1
2023-01-09T06:21:26.183Z,991.2
2023-01-09T06:22:26.191Z,991.2
2023-01-09T06:23:26.434Z,991.2
2023-01-09T06:24:26.204Z,991.3
2023-01-09T06:25:26.201Z,991.3
2023-01-09T06:26:26.186Z,991.2
2023-01-09T06:27:26.177Z,991.2
2023-01-09T06:28:26.187Z,991.2
2023-01-09T06:29:26.193Z,991.2
2023-01-09T06:30:26.184Z,991.2
2023-01-09T06:31:26.244Z,991.2
2023-01-09T06:32:26.188Z,991.1
2023-01-09T06:33:26.191Z,991.2
2023-01-09T06:34:26.186Z,991.2
2023-01-09T06:35:26.182Z,991.2
2023-01-09T06:36:26.188Z,991.2
2023-01-09T06:37:26.176Z,991.2
2023-01-09T06:38:26.181Z,991.2
2023-01-09T06:39:26.187Z,991.2
2023-01-09T06:40:26.196Z,991.2
2023-01-09T06:41:26.184Z,991.2
2023-01-09T06:43:26.180Z,991.2
2023-01-09T06:44:26.187Z,991.2
2023-01-09T06:45:26.199Z,991.3
2023-01-09T06:46:26.265Z,991.2
2023-01-09T06:47:26.178Z,991.2
2023-01-09T06:48:26.183Z,991.2
2023-01-09T06:49:26.177Z,991.2
2023-01-09T06:50:26.191Z,991.2
2023-01-09T06:51:26.182Z,991.2
2023-01-09T06:52:26.232Z,991.3
2023-01-09T06:53:26.180Z,991.2
2023-01-09T06:54:28.619Z,991.2
2023-01-09T06:55:26.195Z,991.2
2023-01-09T06:56:26.211Z,991.3
2023-01-09T06:57:26.181Z,991.1
2023-01-09T06:58:26.184Z,991.2
2023-01-09T06:59:26.183Z,991.2
2023-01-09T07:00:26.181Z,991.2
2023-01-09T07:01:26.359Z,991.2
2023-01-09T07:02:26.203Z,991.2
2023-01-09T07:03:26.177Z,991.1
2023-01-09T07:04:26.252Z,991.2
2023-01-09T07:05:26.191Z,991.1
2023-01-09T07:06:26.181Z,991.2
2023-01-09T07:07:26.179Z,991.2
2023-01-09T07:08:26.181Z,991.2
2023-01-09T07:09:26.190Z,991.2
2023-01-09T07:10:26.189Z,991.1
2023-01-09T07:11:26.202Z,991.1
2023-01-09T07:12:26.182Z,991.1
2023-01-09T07:13:26.192Z,991.2
2023-01-09T07:14:26.180Z,991.2
2023-01-09T07:15:26.177Z,991.1
2023-01-09T07:16:26.214Z,991.1
2023-01-09T07:17:26.183Z,991.1
2023-01-09T07:18:26.190Z,991.2
2023-01-09T07:19:26.181Z,991.2
2023-01-09T07:20:26.179Z,991.2
2023-01-09T07:21:26.176Z,991.1
2023-01-09T07:22:26.188Z,991.1
2023-01-09T07:23:26.227Z,991.1
2023-01-09T07:24:26.183Z,991.2
2023-01-09T07:25:26.177Z,991.2
2023-01-09T07:26:26.186Z,991.2
2023-01-09T07:27:26.205Z,991.2
2023-01-09T07:28:26.200Z,991.1
2023-01-09T07:29:26.176Z,991.1
2023-01-09T07:30:26.184Z,991.1
2023-01-09T07:31:26.298Z,991.2
2023-01-09T07:32:26.185Z,991.2
2023-01-09T07:33:26.227Z,991.2
2023-01-09T07:34:26.183Z,991.1
2023-01-09T07:35:26.193Z,991.2
2023-01-09T07:36:26.190Z,991.1
2023-01-09T07:37:26.189Z,991.2
2023-01-09T07:38:26.173Z,991.1
2023-01-09T07:39:26.178Z,991.2
2023-01-09T07:40:26.188Z,991.2
2023-01-09T07:41:26.184Z,991.2
2023-01-09T07:42:26.197Z,991.2
2023-01-09T07:43:26.172Z,991.2
2023-01-09T07:44:26.194Z,991.2
2023-01-09T07:45:26.173Z,991.3
2023-01-09T07:46:26.242Z,991.3
2023-01-09T07:47:26.207Z,991.3
2023-01-09T07:48:26.181Z,991.3
2023-01-09T07:49:26.980Z,991.3
2023-01-09T07:50:26.199Z,991.3
2023-01-09T07:51:26.433Z,991.3
2023-01-09T07:52:26.194Z,991.3
2023-01-09T07:53:26.177Z,991.3
2023-01-09T07:54:26.178Z,991.3
2023-01-09T07:55:26.191Z,991.3
2023-01-09T07:56:26.180Z,991.4
2023-01-09T07:57:26.174Z,991.3
2023-01-09T07:58:26.196Z,991.3
2023-01-09T07:59:26.183Z,991.4
2023-01-09T08:00:26.177Z,991.4
2023-01-09T08:01:26.303Z,991.4
2023-01-09T08:02:26.206Z,991.3
2023-01-09T08:03:26.175Z,991.4
2023-01-09T08:04:26.191Z,991.4
2023-01-09T08:05:26.206Z,991.4
2023-01-09T08:06:26.184Z,991.3
2023-01-09T08:07:26.180Z,991.4
2023-01-09T08:08:26.185Z,991.4
2023-01-09T08:09:26.180Z,991.4
2023-01-09T08:10:26.205Z,991.4
2023-01-09T08:11:26.198Z,991.4
2023-01-09T08:12:26.184Z,991.4
2023-01-09T08:13:26.182Z,991.4
2023-01-09T08:14:26.181Z,991.4
2023-01-09T08:15:26.177Z,991.4
2023-01-09T08:16:26.173Z,991.4
2023-01-09T08:17:26.669Z,991.4
2023-01-09T08:18:26.176Z,991.4
2023-01-09T08:19:26.175Z,991.4
2023-01-09T08:20:26.183Z,991.5
2023-01-09T08:21:26.178Z,991.5
2023-01-09T08:22:26.177Z,991.5
2023-01-09T08:23:26.182Z,991.5
2023-01-09T08:24:26.207Z,991.5
2023-01-09T08:25:26.176Z,991.4
2023-01-09T08:26:26.175Z,991.4
2023-01-09T08:27:26.177Z,991.5
2023-01-09T08:28:26.188Z,991.5
2023-01-09T08:29:26.201Z,991.6
2023-01-09T08:30:26.200Z,991.6
2023-01-09T08:31:26.233Z,991.6
2023-01-09T08:32:26.178Z,991.6
2023-01-09T08:33:26.175Z,991.6
2023-01-09T08:34:26.246Z,991.6
2023-01-09T08:35:26.190Z,991.5
2023-01-09T08:36:26.264Z,991.5
2023-01-09T08:37:26.178Z,991.5
2023-01-09T08:38:26.179Z,991.6
2023-01-09T08:39:26.178Z,991.6
2023-01-09T08:40:26.171Z,991.6
2023-01-09T08:41:26.169Z,991.7
2023-01-09T08:42:26.170Z,991.6
2023-01-09T08:43:26.179Z,991.6
2023-01-09T08:44:26.179Z,991.7
2023-01-09T08:45:26.175Z,991.6
2023-01-09T08:46:26.212Z,991.7
2023-01-09T08:47:26.172Z,991.6
2023-01-09T08:48:26.185Z,991.6
2023-01-09T08:49:26.171Z,991.6
2023-01-09T08:50:26.204Z,991.6
2023-01-09T08:51:26.181Z,991.6
2023-01-09T08:52:26.186Z,991.7
2023-01-09T08:53:26.174Z,991.7
2023-01-09T08:54:26.179Z,991.8
2023-01-09T08:55:26.179Z,991.7
2023-01-09T08:56:26.169Z,991.7
2023-01-09T08:57:26.173Z,991.7
2023-01-09T08:58:26.173Z,991.7
2023-01-09T08:59:26.168Z,991.8
2023-01-09T09:00:26.308Z,991.8
2023-01-09T09:01:26.235Z,991.8
2023-01-09T09:02:26.235Z,991.8
2023-01-09T09:03:26.174Z,991.8
2023-01-09T09:04:26.175Z,991.8
2023-01-09T09:05:26.174Z,991.8
2023-01-09T09:06:26.242Z,991.9
2023-01-09T09:07:26.205Z,991.8
2023-01-09T09:08:26.175Z,991.8
2023-01-09T09:09:26.186Z,991.8
2023-01-09T09:10:26.170Z,991.8
2023-01-09T09:11:26.171Z,991.9
2023-01-09T09:12:26.187Z,991.8
2023-01-09T09:13:26.182Z,991.8
2023-01-09T09:14:26.173Z,991.8
2023-01-09T09:15:26.173Z,991.8
2023-01-09T09:16:26.386Z,991.8
2023-01-09T09:17:26.208Z,991.9
2023-01-09T09:18:26.176Z,991.9
2023-01-09T09:19:26.165Z,991.8
2023-01-09T09:20:26.200Z,991.9
2023-01-09T09:21:27.147Z,991.9
2023-01-09T09:22:26.170Z,991.8
2023-01-09T09:23:26.179Z,991.9
2023-01-09T09:24:26.172Z,991.8
2023-01-09T09:25:26.203Z,991.8
2023-01-09T09:26:26.168Z,991.8
2023-01-09T09:27:26.186Z,991.8
2023-01-09T09:28:26.179Z,991.9
2023-01-09T09:29:26.198Z,991.9
2023-01-09T09:31:26.257Z,991.8
2023-01-09T09:32:26.163Z,991.9
2023-01-09T09:33:26.169Z,991.9
2023-01-09T09:34:26.176Z,992
2023-01-09T09:35:26.165Z,991.9
2023-01-09T09:36:26.171Z,992
2023-01-09T09:37:26.177Z,992
2023-01-09T09:38:26.169Z,992
2023-01-09T09:39:26.176Z,992
2023-01-09T09:40:26.168Z,992
2023-01-09T09:41:26.166Z,992
2023-01-09T09:42:26.171Z,992
2023-01-09T09:43:26.164Z,992
2023-01-09T09:44:26.175Z,992
2023-01-09T09:45:26.178Z,992
2023-01-09T09:46:26.251Z,992
2023-01-09T09:47:26.174Z,992
2023-01-09T09:48:26.182Z,992
2023-01-09T09:49:26.824Z,992.1
2023-01-09T09:50:26.182Z,992.1
2023-01-09T09:51:26.167Z,992.1
2023-01-09T09:52:26.168Z,992.2
2023-01-09T09:53:26.172Z,992.2
2023-01-09T09:54:26.184Z,992.1
2023-01-09T09:55:26.166Z,992.2
2023-01-09T09:56:26.164Z,992.2
2023-01-09T09:57:26.165Z,992.2
2023-01-09T09:58:26.170Z,992.2
2023-01-09T09:59:27.107Z,992.2
2023-01-09T10:00:26.170Z,992.3
2023-01-09T10:01:26.170Z,992.2
2023-01-09T10:02:26.308Z,992.3
2023-01-09T10:04:26.164Z,992.3
2023-01-09T10:05:26.187Z,992.3
2023-01-09T10:06:26.167Z,992.4
2023-01-09T10:07:26.181Z,992.3
2023-01-09T10:08:26.170Z,992.3
2023-01-09T10:09:26.178Z,992.3
2023-01-09T10:10:26.168Z,992.4
2023-01-09T10:11:26.170Z,992.4
2023-01-09T10:12:26.173Z,992.3
2023-01-09T10:13:26.164Z,992.4
2023-01-09T10:14:26.197Z,992.4
2023-01-09T10:15:26.167Z,992.5
2023-01-09T10:16:26.211Z,992.4
2023-01-09T10:17:26.179Z,992.4
2023-01-09T10:18:26.175Z,992.4
2023-01-09T10:19:26.179Z,992.5
2023-01-09T10:20:26.172Z,992.4
2023-01-09T10:22:26.175Z,992.5
2023-01-09T10:23:26.167Z,992.4
2023-01-09T10:24:26.166Z,992.4
2023-01-09T10:25:26.164Z,992.4
2023-01-09T10:26:26.167Z,992.5
2023-01-09T10:27:26.167Z,992.4
2023-01-09T10:28:26.173Z,992.4
2023-01-09T10:29:26.166Z,992.4
2023-01-09T10:30:26.168Z,992.3
2023-01-09T10:31:26.220Z,992.4
2023-01-09T10:32:26.174Z,992.3
2023-01-09T10:33:26.200Z,992.4
2023-01-09T10:34:26.162Z,992.3
2023-01-09T10:35:28.998Z,992.4
2023-01-09T10:36:26.163Z,992.4
2023-01-09T10:37:26.167Z,992.3
2023-01-09T10:38:26.163Z,992.4
2023-01-09T10:39:26.169Z,992.3
2023-01-09T10:40:26.171Z,992.4
2023-01-09T10:41:26.182Z,992.4
2023-01-09T10:42:26.169Z,992.4
2023-01-09T10:43:26.170Z,992.4
2023-01-09T10:44:26.174Z,992.4
2023-01-09T10:45:26.165Z,992.4
2023-01-09T10:46:26.197Z,992.6
2023-01-09T10:47:26.166Z,992.6
2023-01-09T10:48:26.170Z,992.5
2023-01-09T10:49:26.182Z,992.5
2023-01-09T10:50:26.169Z,992.6
2023-01-09T10:51:26.171Z,992.6
2023-01-09T10:52:26.165Z,992.6
2023-01-09T10:53:26.172Z,992.6
2023-01-09T10:54:26.195Z,992.6
2023-01-09T10:55:26.168Z,992.6
2023-01-09T10:56:26.160Z,992.7
2023-01-09T10:58:26.168Z,992.7
2023-01-09T10:59:26.162Z,992.7
2023-01-09T11:00:26.168Z,992.7
2023-01-09T11:01:26.170Z,992.7
2023-01-09T11:02:26.213Z,992.7
2023-01-09T11:03:26.214Z,992.7
2023-01-09T11:04:26.193Z,992.7
2023-01-09T11:05:27.743Z,992.7
2023-01-09T11:06:26.201Z,992.7
2023-01-09T11:07:26.175Z,992.7
2023-01-09T11:08:26.169Z,992.6
2023-01-09T11:09:26.167Z,992.6
2023-01-09T11:10:27.337Z,992.7
2023-01-09T11:11:26.181Z,992.7
2023-01-09T11:12:26.192Z,992.7
2023-01-09T11:13:26.175Z,992.7
2023-01-09T11:14:26.173Z,992.7
2023-01-09T11:15:26.163Z,992.7
2023-01-09T11:16:26.197Z,992.8
2023-01-09T11:17:26.185Z,992.7
2023-01-09T11:18:26.199Z,992.7
2023-01-09T11:19:26.160Z,992.7
2023-01-09T11:20:26.238Z,992.7
2023-01-09T11:21:20.641Z,992.7
2023-01-09T11:22:26.163Z,992.7
2023-01-09T11:23:26.181Z,992.8
2023-01-09T11:24:26.215Z,992.7
2023-01-09T11:25:26.166Z,992.8
2023-01-09T11:26:26.180Z,992.9
2023-01-09T11:27:26.165Z,992.8
2023-01-09T11:28:26.180Z,992.8
2023-01-09T11:29:26.199Z,992.8
2023-01-09T11:30:26.203Z,992.8
2023-01-09T11:31:26.245Z,992.8
2023-01-09T11:32:26.196Z,992.8
2023-01-09T11:33:26.942Z,992.8
2023-01-09T11:34:26.169Z,992.8
2023-01-09T11:35:26.195Z,992.8
2023-01-09T11:36:26.166Z,992.9
2023-01-09T11:37:26.161Z,992.8
2023-01-09T11:38:26.175Z,992.9
2023-01-09T11:39:26.170Z,992.9
2023-01-09T11:40:26.175Z,992.9
2023-01-09T11:41:26.197Z,992.9
2023-01-09T11:42:26.160Z,992.9
2023-01-09T11:43:26.170Z,993
2023-01-09T11:44:26.176Z,992.9
2023-01-09T11:45:26.171Z,993
2023-01-09T11:46:26.185Z,993
2023-01-09T11:47:26.172Z,993.1
2023-01-09T11:48:26.167Z,993
2023-01-09T11:49:26.184Z,993.1
2023-01-09T11:50:26.181Z,993
2023-01-09T11:51:26.172Z,993.1
2023-01-09T11:52:26.178Z,993.1
2023-01-09T11:53:26.192Z,993.1
2023-01-09T11:54:26.202Z,993.1
2023-01-09T11:55:34.748Z,993.1
2023-01-09T11:56:26.171Z,993.1
2023-01-09T11:57:26.162Z,993.1
2023-01-09T11:58:26.178Z,993.1
2023-01-09T11:59:26.164Z,993.2
2023-01-09T12:00:26.171Z,993.2
2023-01-09T12:01:26.164Z,993.3
2023-01-09T12:02:26.182Z,993.3
2023-01-09T12:04:26.166Z,993.3
2023-01-09T12:05:26.168Z,993.3
2023-01-09T12:06:26.201Z,993.3
2023-01-09T12:07:26.163Z,993.3
2023-01-09T12:08:26.180Z,993.4
2023-01-09T12:09:26.172Z,993.3
2023-01-09T12:10:26.166Z,993.2
2023-01-09T12:11:26.164Z,993.3
2023-01-09T12:12:26.171Z,993.3
2023-01-09T12:13:26.316Z,993.3
2023-01-09T12:14:26.168Z,993.4
2023-01-09T12:15:26.192Z,993.4
2023-01-09T12:16:26.237Z,993.4
2023-01-09T12:17:26.175Z,993.5
2023-01-09T12:18:26.187Z,993.5
2023-01-09T12:19:26.166Z,993.4
2023-01-09T12:20:26.177Z,993.5
2023-01-09T12:21:26.180Z,993.5
2023-01-09T12:22:26.171Z,993.4
2023-01-09T12:23:26.168Z,993.5
2023-01-09T12:24:26.179Z,993.5
2023-01-09T12:25:26.166Z,993.5
2023-01-09T12:26:26.173Z,993.5
2023-01-09T12:27:26.186Z,993.5
2023-01-09T12:28:26.177Z,993.6
2023-01-09T12:30:26.177Z,993.5
2023-01-09T12:31:26.226Z,993.6
2023-01-09T12:32:26.176Z,993.6
2023-01-09T12:33:26.176Z,993.5
2023-01-09T12:34:26.165Z,993.5
2023-01-09T12:35:26.178Z,993.6
2023-01-09T12:36:26.161Z,993.6
2023-01-09T12:37:26.203Z,993.6
2023-01-09T12:38:26.181Z,993.5
2023-01-09T12:39:26.169Z,993.6
2023-01-09T12:40:26.170Z,993.6
2023-01-09T12:42:26.182Z,993.6
2023-01-09T12:44:35.073Z,993.6
2023-01-09T12:45:26.194Z,993.7
2023-01-09T12:46:26.218Z,993.7
2023-01-09T12:47:26.178Z,993.7
2023-01-09T12:48:26.167Z,993.7
2023-01-09T12:49:26.164Z,993.7
2023-01-09T12:50:26.181Z,993.7
2023-01-09T12:51:26.169Z,993.7
2023-01-09T12:52:26.179Z,993.7
2023-01-09T12:53:26.165Z,993.7
2023-01-09T12:54:26.163Z,993.8
2023-01-09T12:55:26.174Z,993.8
2023-01-09T12:56:26.185Z,993.8
2023-01-09T12:57:26.180Z,993.7
2023-01-09T12:58:26.174Z,993.7
2023-01-09T12:59:26.176Z,993.7
2023-01-09T13:00:26.169Z,993.7
2023-01-09T13:01:26.263Z,993.8
2023-01-09T13:02:26.191Z,993.8
2023-01-09T13:03:26.167Z,993.7
2023-01-09T13:04:26.174Z,993.7
2023-01-09T13:05:26.166Z,993.8
2023-01-09T13:06:26.195Z,993.8
2023-01-09T13:07:26.179Z,993.8
2023-01-09T13:08:26.196Z,993.9
2023-01-09T13:09:26.177Z,993.9
2023-01-09T13:10:26.171Z,993.9
2023-01-09T13:11:26.177Z,994
2023-01-09T13:12:26.180Z,994.1
2023-01-09T13:13:26.165Z,994
2023-01-09T13:14:26.169Z,994
2023-01-09T13:15:26.166Z,994
2023-01-09T13:16:26.249Z,994.1
2023-01-09T13:17:26.194Z,994.1
2023-01-09T13:18:26.170Z,994.1
2023-01-09T13:19:26.183Z,994.1
2023-01-09T13:20:26.163Z,994.2
2023-01-09T13:21:26.195Z,994.2
2023-01-09T13:22:26.179Z,994.1